Address 0x440c8c0c5af95ee6d17d4d24f6f2f705e967ca7e

 
 
Txn Hash
Block
From
To
Value [Txn Fee]
0xb09ceaeedb2d2b65e90bc174b5d20f447479a3eaad12ff234d2ff224ddc17baf94294472021-07-24 6:11:199 hrs 3 mins ago0x440c8c0c5af95ee6d17d4d24f6f2f705e967ca7eOUT 0x03a40aba6865ba5045d80137dedf46fb3312a4ee0 BNB0.00063291
0x644f8821b60b62d74f2fae033e2e7401cd887a36b50f3a5b4e8ad2f2c91129b794294372021-07-24 6:10:479 hrs 3 mins ago0x440c8c0c5af95ee6d17d4d24f6f2f705e967ca7eOUT 0x5135e2f58d5d8fb85019990fee72951b63ac65240 BNB0.00056736
0xbf94430ba874b8813432a4750de8698ae13e04657adadc000a4aab04b1a2c1eb93416362021-07-21 4:52:073 days 10 hrs ago0x440c8c0c5af95ee6d17d4d24f6f2f705e967ca7eOUT 0x13ddd28adefc0ace82b06673407a2aca0fc70cd80 BNB0.000510635
0xba8bf0dc4531abb6f040ce877df925513b2ed8c99389d4591c127e8153e5cb3d93416282021-07-21 4:51:433 days 10 hrs ago0x440c8c0c5af95ee6d17d4d24f6f2f705e967ca7eOUT 0x5135e2f58d5d8fb85019990fee72951b63ac65240 BNB0.00056736
0x25bb69773fc0ea39e21cd48aa5c16a66b639706ab16a086181510288f093915f92646542021-07-18 12:40:066 days 2 hrs ago0x440c8c0c5af95ee6d17d4d24f6f2f705e967ca7eOUT 0x03a40aba6865ba5045d80137dedf46fb3312a4ee0 BNB0.000334735
0xe0487dae04cc4b1ed763ee28e428361c8ec53bc0db3e4b07b23c4e4a518f4f8892646372021-07-18 12:39:156 days 2 hrs ago0x440c8c0c5af95ee6d17d4d24f6f2f705e967ca7eOUT 0x03a40aba6865ba5045d80137dedf46fb3312a4ee0 BNB0.00046806
0x4559a14c5b29967e6096e95523126bdf36819ba2229f46b1b1906e5ac8000e4a92576512021-07-18 6:49:576 days 8 hrs ago0x440c8c0c5af95ee6d17d4d24f6f2f705e967ca7eOUT 0x03a40aba6865ba5045d80137dedf46fb3312a4ee0 BNB0.00050258
0x3b2450f0749887b3f67317bc70a51e72ddd9f6e107ac712a73e403282c5a130c92576442021-07-18 6:49:366 days 8 hrs ago0x440c8c0c5af95ee6d17d4d24f6f2f705e967ca7eOUT 0x5135e2f58d5d8fb85019990fee72951b63ac65240 BNB0.00056736
0x6722f32b8fd1b473c99609676e7279d2b7593dbcf2cb4bf6c96822dfa78c087e92576392021-07-18 6:49:216 days 8 hrs ago0x440c8c0c5af95ee6d17d4d24f6f2f705e967ca7eOUT 0x13ddd28adefc0ace82b06673407a2aca0fc70cd80 BNB0.000510635
0x37469ad22393b8a9ff644b359901c9175c8031b2f61c7dc7337da49fbdb89dbe92576302021-07-18 6:48:546 days 8 hrs ago0x440c8c0c5af95ee6d17d4d24f6f2f705e967ca7eOUT PancakeSwap: Router v20 BNB0.0010628247
0x02cab64dc63e5f528bd9a122d47732a2b0d46176cbed00bb6e97197ad65c6aae91562372021-07-14 18:16:489 days 20 hrs ago0x440c8c0c5af95ee6d17d4d24f6f2f705e967ca7eOUT 0x03a40aba6865ba5045d80137dedf46fb3312a4ee0 BNB0.00050258
0x5e62ac12f8bfdecbcb0ad6d8429eeff9920e3c3ed56328d58813f6abb5a0e0c891562292021-07-14 18:16:249 days 20 hrs ago0x440c8c0c5af95ee6d17d4d24f6f2f705e967ca7eOUT 0x13ddd28adefc0ace82b06673407a2aca0fc70cd80 BNB0.000510635
0x8e6e1f4a56f10a301a4aa1e6044c54918ff933a98afeef18b4bf14c5bd95218991562192021-07-14 18:15:549 days 20 hrs ago0x440c8c0c5af95ee6d17d4d24f6f2f705e967ca7eOUT 0x5135e2f58d5d8fb85019990fee72951b63ac65240 BNB0.000567345
0x0392f2be2748d2c4b6db746322623cf250d16873d8c9c22d521883b0d3d3a95990799952021-07-12 2:43:4712 days 12 hrs ago0x440c8c0c5af95ee6d17d4d24f6f2f705e967ca7eOUT 0x5135e2f58d5d8fb85019990fee72951b63ac65240 BNB0.000567345
0xbf87919de8b4bd92cc0b2b94ad6aa07de216c369e7c3a8af500c67b9db97401690799892021-07-12 2:43:2912 days 12 hrs ago0x440c8c0c5af95ee6d17d4d24f6f2f705e967ca7eOUT 0x03a40aba6865ba5045d80137dedf46fb3312a4ee0 BNB0.0005599
0xaba1ea1969f4e91f8d8b62a9af246ddec8e1c5f50dfcedd38e82007a19258a7890799822021-07-12 2:43:0812 days 12 hrs ago0x440c8c0c5af95ee6d17d4d24f6f2f705e967ca7eOUT 0x13ddd28adefc0ace82b06673407a2aca0fc70cd80 BNB0.000510635
0xce641799caa4e5f5d75c2a8bcad7627a0fea99e155bcef24481566482242056b90205692021-07-10 1:12:0714 days 14 hrs ago0x440c8c0c5af95ee6d17d4d24f6f2f705e967ca7eOUT 0x5135e2f58d5d8fb85019990fee72951b63ac65240 BNB0.000642345
0x08c2f26bd1c93febf82e0d1bc21d2af4a49d8afca2c5593d71e5115acc78d84890035832021-07-09 11:02:3015 days 4 hrs ago0x440c8c0c5af95ee6d17d4d24f6f2f705e967ca7eOUT BUSD-T Stablecoin0 BNB0.0002606253
0x5ea8d3a6df430e5f9415ab7c9de379eae5414f85d317f170e0e9f0c7b5b0b8f490035652021-07-09 11:01:3615 days 4 hrs ago0x440c8c0c5af95ee6d17d4d24f6f2f705e967ca7eOUT PancakeSwap: Router v20 BNB0.0012588687
0xb83ca0723b63df1ffb0ef292edaf3b75b771d1732e5eba308064d84d49720b3389784912021-07-08 14:07:3916 days 1 hr ago0x440c8c0c5af95ee6d17d4d24f6f2f705e967ca7eOUT 0x03a40aba6865ba5045d80137dedf46fb3312a4ee0 BNB0.000583755
0x086f2c4f43452adb145b143745a2cb2f95e00c7789046503deb298b4376d11c189784862021-07-08 14:07:2416 days 1 hr ago0x440c8c0c5af95ee6d17d4d24f6f2f705e967ca7eOUT 0x13ddd28adefc0ace82b06673407a2aca0fc70cd80 BNB0.000510635
0x5031627e761c5b7b4d79b713705c9458cba2026f27991d9ed21663655cda272589780222021-07-08 13:44:1216 days 1 hr ago0x440c8c0c5af95ee6d17d4d24f6f2f705e967ca7eOUT 0x5135e2f58d5d8fb85019990fee72951b63ac65240 BNB0.000567345
0x421f35d1e455a22ff551f11f9f9719708c50e9547fa21659d28f250399f9feca88934122021-07-05 14:56:5119 days 17 mins ago0x440c8c0c5af95ee6d17d4d24f6f2f705e967ca7eOUT 0x03a40aba6865ba5045d80137dedf46fb3312a4ee0 BNB0.000583755
0x01dc9a681690e125e8d0a6537b7931eb92d2510ba44da2503497415af1315cc888934072021-07-05 14:56:3619 days 17 mins ago0x440c8c0c5af95ee6d17d4d24f6f2f705e967ca7eOUT 0x5135e2f58d5d8fb85019990fee72951b63ac65240 BNB0.00056789
0xcdcb9011e11194cb26e58ac48fb74d5ef242415dededb7bc5eef405d9c9a45ae88934012021-07-05 14:56:1819 days 18 mins ago0x440c8c0c5af95ee6d17d4d24f6f2f705e967ca7eOUT 0x13ddd28adefc0ace82b06673407a2aca0fc70cd80 BNB0.000510635
[ Download CSV Export 
Latest 3 internal transactions
Parent Txn Hash Block From To Value
0x37469ad22393b8a9ff644b359901c9175c8031b2f61c7dc7337da49fbdb89dbe92576302021-07-18 6:48:546 days 8 hrs ago PancakeSwap: Router v20x440c8c0c5af95ee6d17d4d24f6f2f705e967ca7e0.004700903591571718 BNB
0x42028e816acd617eb3e3d7cad8d88633691870a16f53b8c9558ba41cade1957482496122021-06-13 2:33:0541 days 12 hrs ago PancakeSwap: Router v20x440c8c0c5af95ee6d17d4d24f6f2f705e967ca7e0.224819078193076123 BNB
0xa744d710db9f8f4ef7eb3561f37310bc41e8ccfbf9c9080cf421ab674f6fac2578574062021-05-30 10:38:4355 days 4 hrs ago PancakeSwap: Router v20x440c8c0c5af95ee6d17d4d24f6f2f705e967ca7e0.041290182444072821 BNB
[ Download CSV Export 
Loading

Contract Name:
0 BNB

Compiler Version
0

Optimization Enabled:
0 BNB

Other Settings:
-NA-
Block Transaction Gas Used Reward
Age Block Fee Address BC Fee Address Voting Power Jailed Incoming
Block Uncle Number Difficulty Gas Used Reward
Loading
Loading
Make sure to use the "Vote Down" button for any spammy posts, and the "Vote Up" for interesting conversations.